Terminal Aerodrome Forecast
Issued by NWS

Current Version | Previous Version | Text Only | Print | Product List | Glossary On
Versions: 1 2 3 4 5 6 7 8 9 10 11 12 13 14 15 16
492
FTUS43 KSGF 302320
TAFJLN
TAF
KJLN 302320Z 3100/3124 10006KT P6SM SKC
     FM310700 12005KT P6SM SCT040 BKN250 PROB30 3110/3114 5SM -TSRA
      BR OVC040CB
     FM311500 17007KT P6SM BKN200
     FM311900 15010KT P6SM VCTS SCT040CB BKN250=

USA.gov is the U.S. government's official web portal to all federal, state and local government web resources and services.